sensor_id;sensor_type;location;lat;lon;timestamp;P1;durP1;ratioP1;P2;durP2;ratioP2
50815;SDS011;39717;47.324;8.788;2022-10-19T00:03:52;10.63;;;7.00;;
50815;SDS011;39717;47.324;8.788;2022-10-19T00:06:21;9.97;;;7.87;;
50815;SDS011;39717;47.324;8.788;2022-10-19T00:09:12;11.30;;;7.00;;
50815;SDS011;39717;47.324;8.788;2022-10-19T00:11:41;10.23;;;7.10;;
50815;SDS011;39717;47.324;8.788;2022-10-19T00:14:11;9.20;;;6.73;;
50815;SDS011;39717;47.324;8.788;2022-10-19T00:16:41;12.27;;;6.90;;
50815;SDS011;39717;47.324;8.788;2022-10-19T00:19:11;14.07;;;7.60;;
50815;SDS011;39717;47.324;8.788;2022-10-19T00:21:43;10.47;;;6.93;;
50815;SDS011;39717;47.324;8.788;2022-10-19T00:24:10;10.00;;;6.90;;
50815;SDS011;39717;47.324;8.788;2022-10-19T00:26:42;11.00;;;7.47;;
50815;SDS011;39717;47.324;8.788;2022-10-19T00:29:10;8.67;;;6.77;;
50815;SDS011;39717;47.324;8.788;2022-10-19T00:31:40;10.00;;;7.27;;
50815;SDS011;39717;47.324;8.788;2022-10-19T00:34:13;10.57;;;7.10;;
50815;SDS011;39717;47.324;8.788;2022-10-19T00:36:39;11.57;;;7.00;;
50815;SDS011;39717;47.324;8.788;2022-10-19T00:39:06;8.70;;;6.80;;
50815;SDS011;39717;47.324;8.788;2022-10-19T00:41:41;11.27;;;6.70;;
50815;SDS011;39717;47.324;8.788;2022-10-19T00:46:59;12.70;;;7.17;;
50815;SDS011;39717;47.324;8.788;2022-10-19T00:49:29;12.73;;;7.33;;
50815;SDS011;39717;47.324;8.788;2022-10-19T00:52:06;13.27;;;7.67;;
50815;SDS011;39717;47.324;8.788;2022-10-19T00:54:36;6.97;;;5.60;;
50815;SDS011;39717;47.324;8.788;2022-10-19T01:00:01;11.70;;;6.63;;
50815;SDS011;39717;47.324;8.788;2022-10-19T01:02:29;11.37;;;7.57;;
50815;SDS011;39717;47.324;8.788;2022-10-19T01:04:55;9.30;;;6.57;;
50815;SDS011;39717;47.324;8.788;2022-10-19T01:07:21;14.77;;;7.90;;
50815;SDS011;39717;47.324;8.788;2022-10-19T01:09:48;10.60;;;6.30;;
50815;SDS011;39717;47.324;8.788;2022-10-19T01:32:04;8.77;;;6.47;;
50815;SDS011;39717;47.324;8.788;2022-10-19T01:34:53;10.30;;;6.50;;
50815;SDS011;39717;47.324;8.788;2022-10-19T01:37:45;8.57;;;6.13;;
50815;SDS011;39717;47.324;8.788;2022-10-19T01:40:27;11.57;;;7.00;;
50815;SDS011;39717;47.324;8.788;2022-10-19T01:43:03;12.10;;;6.53;;
50815;SDS011;39717;47.324;8.788;2022-10-19T01:45:47;10.40;;;6.57;;
50815;SDS011;39717;47.324;8.788;2022-10-19T01:48:21;9.03;;;6.43;;
50815;SDS011;39717;47.324;8.788;2022-10-19T01:50:57;9.20;;;5.83;;
50815;SDS011;39717;47.324;8.788;2022-10-19T01:53:27;16.37;;;6.40;;
50815;SDS011;39717;47.324;8.788;2022-10-19T01:58:27;11.70;;;6.70;;
50815;SDS011;39717;47.324;8.788;2022-10-19T02:00:58;10.67;;;6.77;;
50815;SDS011;39717;47.324;8.788;2022-10-19T02:03:28;9.43;;;6.07;;
50815;SDS011;39717;47.324;8.788;2022-10-19T02:05:56;10.77;;;6.60;;
50815;SDS011;39717;47.324;8.788;2022-10-19T02:08:28;9.17;;;6.23;;
50815;SDS011;39717;47.324;8.788;2022-10-19T02:11:04;6.80;;;6.00;;
50815;SDS011;39717;47.324;8.788;2022-10-19T02:13:31;11.27;;;5.63;;
50815;SDS011;39717;47.324;8.788;2022-10-19T02:15:59;8.00;;;5.30;;
50815;SDS011;39717;47.324;8.788;2022-10-19T02:18:31;9.93;;;5.93;;
50815;SDS011;39717;47.324;8.788;2022-10-19T02:21:01;9.50;;;6.00;;
50815;SDS011;39717;47.324;8.788;2022-10-19T02:23:30;12.17;;;6.83;;
50815;SDS011;39717;47.324;8.788;2022-10-19T02:25:56;9.53;;;6.47;;
50815;SDS011;39717;47.324;8.788;2022-10-19T02:28:23;7.80;;;6.00;;
50815;SDS011;39717;47.324;8.788;2022-10-19T02:30:53;11.37;;;6.77;;
50815;SDS011;39717;47.324;8.788;2022-10-19T02:33:20;13.87;;;6.07;;
50815;SDS011;39717;47.324;8.788;2022-10-19T02:35:47;9.87;;;6.03;;
50815;SDS011;39717;47.324;8.788;2022-10-19T02:38:16;11.03;;;6.87;;
50815;SDS011;39717;47.324;8.788;2022-10-19T02:40:48;9.83;;;6.13;;
50815;SDS011;39717;47.324;8.788;2022-10-19T02:43:31;10.30;;;6.57;;
50815;SDS011;39717;47.324;8.788;2022-10-19T02:46:03;9.60;;;6.27;;
50815;SDS011;39717;47.324;8.788;2022-10-19T02:48:49;6.77;;;5.90;;
50815;SDS011;39717;47.324;8.788;2022-10-19T02:51:32;13.63;;;6.90;;
50815;SDS011;39717;47.324;8.788;2022-10-19T02:53:59;8.70;;;6.03;;
50815;SDS011;39717;47.324;8.788;2022-10-19T02:56:26;15.33;;;6.27;;
50815;SDS011;39717;47.324;8.788;2022-10-19T02:58:54;8.37;;;5.87;;
50815;SDS011;39717;47.324;8.788;2022-10-19T03:01:20;10.07;;;6.03;;
50815;SDS011;39717;47.324;8.788;2022-10-19T03:03:47;9.33;;;6.50;;
50815;SDS011;39717;47.324;8.788;2022-10-19T03:06:13;12.40;;;6.63;;
50815;SDS011;39717;47.324;8.788;2022-10-19T03:08:39;6.90;;;6.07;;
50815;SDS011;39717;47.324;8.788;2022-10-19T03:11:11;8.13;;;6.47;;
50815;SDS011;39717;47.324;8.788;2022-10-19T03:13:37;13.73;;;6.63;;
50815;SDS011;39717;47.324;8.788;2022-10-19T03:16:08;7.80;;;5.87;;
50815;SDS011;39717;47.324;8.788;2022-10-19T03:18:35;9.47;;;6.07;;
50815;SDS011;39717;47.324;8.788;2022-10-19T03:21:02;9.97;;;6.30;;
50815;SDS011;39717;47.324;8.788;2022-10-19T03:23:33;11.47;;;6.80;;
50815;SDS011;39717;47.324;8.788;2022-10-19T03:25:59;10.13;;;6.10;;
50815;SDS011;39717;47.324;8.788;2022-10-19T03:28:25;7.13;;;5.63;;
50815;SDS011;39717;47.324;8.788;2022-10-19T03:30:52;8.97;;;6.77;;
50815;SDS011;39717;47.324;8.788;2022-10-19T03:33:17;10.03;;;6.53;;
50815;SDS011;39717;47.324;8.788;2022-10-19T03:35:44;11.50;;;6.23;;
50815;SDS011;39717;47.324;8.788;2022-10-19T03:38:16;10.03;;;6.57;;
50815;SDS011;39717;47.324;8.788;2022-10-19T03:40:42;10.23;;;7.70;;
50815;SDS011;39717;47.324;8.788;2022-10-19T03:43:08;10.33;;;6.83;;
50815;SDS011;39717;47.324;8.788;2022-10-19T03:45:33;11.40;;;5.83;;
50815;SDS011;39717;47.324;8.788;2022-10-19T03:47:59;10.20;;;6.37;;
50815;SDS011;39717;47.324;8.788;2022-10-19T03:50:25;9.80;;;7.50;;
50815;SDS011;39717;47.324;8.788;2022-10-19T03:52:53;11.20;;;6.80;;
50815;SDS011;39717;47.324;8.788;2022-10-19T03:55:19;11.03;;;7.03;;
50815;SDS011;39717;47.324;8.788;2022-10-19T04:00:38;6.53;;;5.83;;
50815;SDS011;39717;47.324;8.788;2022-10-19T04:03:04;9.27;;;6.27;;
50815;SDS011;39717;47.324;8.788;2022-10-19T04:05:30;9.87;;;6.63;;
50815;SDS011;39717;47.324;8.788;2022-10-19T04:07:56;9.33;;;6.40;;
50815;SDS011;39717;47.324;8.788;2022-10-19T04:10:23;12.60;;;7.27;;
50815;SDS011;39717;47.324;8.788;2022-10-19T04:12:49;9.27;;;7.07;;
50815;SDS011;39717;47.324;8.788;2022-10-19T04:15:20;11.00;;;6.87;;
50815;SDS011;39717;47.324;8.788;2022-10-19T04:17:46;7.97;;;6.23;;
50815;SDS011;39717;47.324;8.788;2022-10-19T04:20:14;9.70;;;6.27;;
50815;SDS011;39717;47.324;8.788;2022-10-19T04:22:41;12.93;;;6.67;;
50815;SDS011;39717;47.324;8.788;2022-10-19T04:25:08;10.37;;;6.83;;
50815;SDS011;39717;47.324;8.788;2022-10-19T04:27:35;9.57;;;6.90;;
50815;SDS011;39717;47.324;8.788;2022-10-19T04:30:01;10.87;;;7.23;;
50815;SDS011;39717;47.324;8.788;2022-10-19T04:32:26;9.03;;;6.87;;
50815;SDS011;39717;47.324;8.788;2022-10-19T04:34:53;9.73;;;6.70;;
50815;SDS011;39717;47.324;8.788;2022-10-19T04:37:21;12.73;;;7.17;;
50815;SDS011;39717;47.324;8.788;2022-10-19T04:39:46;10.90;;;7.53;;
50815;SDS011;39717;47.324;8.788;2022-10-19T04:42:13;13.33;;;7.70;;
50815;SDS011;39717;47.324;8.788;2022-10-19T04:47:30;12.97;;;7.80;;
50815;SDS011;39717;47.324;8.788;2022-10-19T04:49:56;16.10;;;8.17;;
50815;SDS011;39717;47.324;8.788;2022-10-19T04:52:22;13.40;;;7.70;;
50815;SDS011;39717;47.324;8.788;2022-10-19T04:54:48;12.30;;;7.37;;
50815;SDS011;39717;47.324;8.788;2022-10-19T04:57:15;14.10;;;7.07;;
50815;SDS011;39717;47.324;8.788;2022-10-19T04:59:42;12.43;;;8.27;;
50815;SDS011;39717;47.324;8.788;2022-10-19T05:02:08;9.83;;;8.20;;
50815;SDS011;39717;47.324;8.788;2022-10-19T05:04:33;13.57;;;7.73;;
50815;SDS011;39717;47.324;8.788;2022-10-19T05:06:59;13.33;;;7.70;;
50815;SDS011;39717;47.324;8.788;2022-10-19T05:09:31;10.97;;;7.73;;
50815;SDS011;39717;47.324;8.788;2022-10-19T05:11:57;13.73;;;8.00;;
50815;SDS011;39717;47.324;8.788;2022-10-19T05:14:22;12.87;;;8.33;;
50815;SDS011;39717;47.324;8.788;2022-10-19T05:16:48;16.77;;;8.83;;
50815;SDS011;39717;47.324;8.788;2022-10-19T05:19:14;18.97;;;9.43;;
50815;SDS011;39717;47.324;8.788;2022-10-19T05:21:41;18.53;;;10.40;;
50815;SDS011;39717;47.324;8.788;2022-10-19T05:24:06;23.37;;;11.33;;
50815;SDS011;39717;47.324;8.788;2022-10-19T05:26:35;23.37;;;11.70;;
50815;SDS011;39717;47.324;8.788;2022-10-19T05:29:01;19.10;;;9.83;;
50815;SDS011;39717;47.324;8.788;2022-10-19T05:31:30;25.73;;;10.50;;
50815;SDS011;39717;47.324;8.788;2022-10-19T05:33:57;17.97;;;9.77;;
50815;SDS011;39717;47.324;8.788;2022-10-19T05:36:28;19.53;;;10.00;;
50815;SDS011;39717;47.324;8.788;2022-10-19T05:39:22;15.90;;;9.57;;
50815;SDS011;39717;47.324;8.788;2022-10-19T05:41:47;15.33;;;9.30;;
50815;SDS011;39717;47.324;8.788;2022-10-19T05:44:16;18.07;;;9.20;;
50815;SDS011;39717;47.324;8.788;2022-10-19T05:46:44;17.17;;;10.53;;
50815;SDS011;39717;47.324;8.788;2022-10-19T05:49:12;17.13;;;10.63;;
50815;SDS011;39717;47.324;8.788;2022-10-19T05:51:41;18.73;;;11.00;;
50815;SDS011;39717;47.324;8.788;2022-10-19T05:56:37;19.23;;;11.50;;
50815;SDS011;39717;47.324;8.788;2022-10-19T05:59:04;15.47;;;11.80;;
50815;SDS011;39717;47.324;8.788;2022-10-19T06:01:32;17.20;;;10.73;;
50815;SDS011;39717;47.324;8.788;2022-10-19T06:03:59;14.60;;;9.77;;
50815;SDS011;39717;47.324;8.788;2022-10-19T06:06:26;13.70;;;10.20;;
50815;SDS011;39717;47.324;8.788;2022-10-19T06:08:53;16.07;;;10.33;;
50815;SDS011;39717;47.324;8.788;2022-10-19T06:13:54;14.67;;;9.53;;
50815;SDS011;39717;47.324;8.788;2022-10-19T06:16:22;17.13;;;10.53;;
50815;SDS011;39717;47.324;8.788;2022-10-19T06:18:51;18.17;;;9.90;;
50815;SDS011;39717;47.324;8.788;2022-10-19T06:21:19;14.67;;;9.93;;
50815;SDS011;39717;47.324;8.788;2022-10-19T06:23:51;14.70;;;9.83;;
50815;SDS011;39717;47.324;8.788;2022-10-19T06:26:19;12.93;;;8.73;;
50815;SDS011;39717;47.324;8.788;2022-10-19T06:28:46;14.60;;;9.43;;
50815;SDS011;39717;47.324;8.788;2022-10-19T06:31:13;22.07;;;10.63;;
50815;SDS011;39717;47.324;8.788;2022-10-19T06:33:40;19.70;;;9.87;;
50815;SDS011;39717;47.324;8.788;2022-10-19T06:36:11;24.40;;;9.87;;
50815;SDS011;39717;47.324;8.788;2022-10-19T06:38:39;15.00;;;10.03;;
50815;SDS011;39717;47.324;8.788;2022-10-19T06:41:08;20.17;;;10.27;;
50815;SDS011;39717;47.324;8.788;2022-10-19T06:43:34;18.27;;;9.57;;
50815;SDS011;39717;47.324;8.788;2022-10-19T06:46:04;15.30;;;11.00;;
50815;SDS011;39717;47.324;8.788;2022-10-19T06:48:34;11.10;;;8.80;;
50815;SDS011;39717;47.324;8.788;2022-10-19T06:51:04;15.93;;;9.60;;
50815;SDS011;39717;47.324;8.788;2022-10-19T06:53:32;11.73;;;9.90;;
50815;SDS011;39717;47.324;8.788;2022-10-19T06:56:00;13.13;;;9.70;;
50815;SDS011;39717;47.324;8.788;2022-10-19T06:58:28;13.43;;;11.07;;
50815;SDS011;39717;47.324;8.788;2022-10-19T07:00:58;12.00;;;10.57;;
50815;SDS011;39717;47.324;8.788;2022-10-19T07:03:25;11.23;;;9.63;;
50815;SDS011;39717;47.324;8.788;2022-10-19T07:05:56;12.93;;;9.63;;
50815;SDS011;39717;47.324;8.788;2022-10-19T07:08:24;12.50;;;9.60;;
50815;SDS011;39717;47.324;8.788;2022-10-19T07:10:54;14.50;;;9.50;;
50815;SDS011;39717;47.324;8.788;2022-10-19T07:13:24;13.60;;;10.10;;
50815;SDS011;39717;47.324;8.788;2022-10-19T07:18:29;15.87;;;11.30;;
50815;SDS011;39717;47.324;8.788;2022-10-19T07:23:23;13.30;;;9.73;;
50815;SDS011;39717;47.324;8.788;2022-10-19T07:25:50;14.57;;;10.17;;
50815;SDS011;39717;47.324;8.788;2022-10-19T07:33:16;14.37;;;11.43;;
50815;SDS011;39717;47.324;8.788;2022-10-19T07:35:43;13.23;;;11.23;;
50815;SDS011;39717;47.324;8.788;2022-10-19T07:38:11;13.27;;;11.43;;
50815;SDS011;39717;47.324;8.788;2022-10-19T07:40:38;17.47;;;12.33;;
50815;SDS011;39717;47.324;8.788;2022-10-19T07:43:03;17.40;;;13.40;;
50815;SDS011;39717;47.324;8.788;2022-10-19T07:45:29;18.60;;;13.30;;
50815;SDS011;39717;47.324;8.788;2022-10-19T07:47:56;15.30;;;12.63;;
50815;SDS011;39717;47.324;8.788;2022-10-19T07:50:23;15.50;;;13.20;;
50815;SDS011;39717;47.324;8.788;2022-10-19T07:52:52;16.60;;;11.80;;
50815;SDS011;39717;47.324;8.788;2022-10-19T07:55:20;17.37;;;13.73;;
50815;SDS011;39717;47.324;8.788;2022-10-19T07:57:46;17.13;;;12.23;;
50815;SDS011;39717;47.324;8.788;2022-10-19T08:00:19;16.53;;;12.83;;
50815;SDS011;39717;47.324;8.788;2022-10-19T08:02:45;18.23;;;14.30;;
50815;SDS011;39717;47.324;8.788;2022-10-19T08:05:12;20.47;;;14.93;;
50815;SDS011;39717;47.324;8.788;2022-10-19T08:07:39;24.77;;;17.13;;
50815;SDS011;39717;47.324;8.788;2022-10-19T08:10:06;22.07;;;14.77;;
50815;SDS011;39717;47.324;8.788;2022-10-19T08:12:33;23.73;;;16.50;;
50815;SDS011;39717;47.324;8.788;2022-10-19T08:15:01;21.00;;;15.87;;
50815;SDS011;39717;47.324;8.788;2022-10-19T08:17:35;19.87;;;15.80;;
50815;SDS011;39717;47.324;8.788;2022-10-19T08:20:04;25.47;;;16.07;;
50815;SDS011;39717;47.324;8.788;2022-10-19T08:22:32;23.20;;;16.27;;
50815;SDS011;39717;47.324;8.788;2022-10-19T08:24:59;18.93;;;14.63;;
50815;SDS011;39717;47.324;8.788;2022-10-19T08:27:28;39.80;;;18.43;;
50815;SDS011;39717;47.324;8.788;2022-10-19T08:29:54;31.20;;;19.30;;
50815;SDS011;39717;47.324;8.788;2022-10-19T08:32:22;27.23;;;16.63;;
50815;SDS011;39717;47.324;8.788;2022-10-19T08:34:49;27.00;;;17.90;;
50815;SDS011;39717;47.324;8.788;2022-10-19T08:37:17;28.17;;;19.13;;
50815;SDS011;39717;47.324;8.788;2022-10-19T08:39:43;25.60;;;17.83;;
50815;SDS011;39717;47.324;8.788;2022-10-19T08:42:15;28.20;;;19.23;;
50815;SDS011;39717;47.324;8.788;2022-10-19T08:44:57;25.37;;;19.30;;
50815;SDS011;39717;47.324;8.788;2022-10-19T08:50:00;25.57;;;17.60;;
50815;SDS011;39717;47.324;8.788;2022-10-19T08:52:28;25.70;;;18.23;;
50815;SDS011;39717;47.324;8.788;2022-10-19T08:54:58;21.93;;;16.47;;
50815;SDS011;39717;47.324;8.788;2022-10-19T09:03:08;25.70;;;17.87;;
50815;SDS011;39717;47.324;8.788;2022-10-19T09:08:46;23.77;;;17.23;;
50815;SDS011;39717;47.324;8.788;2022-10-19T09:11:15;25.77;;;16.87;;
50815;SDS011;39717;47.324;8.788;2022-10-19T09:14:04;30.70;;;17.20;;
50815;SDS011;39717;47.324;8.788;2022-10-19T09:16:37;23.23;;;16.33;;
50815;SDS011;39717;47.324;8.788;2022-10-19T09:19:08;23.47;;;16.50;;
50815;SDS011;39717;47.324;8.788;2022-10-19T09:22:00;23.03;;;15.90;;
50815;SDS011;39717;47.324;8.788;2022-10-19T09:24:37;29.87;;;18.20;;
50815;SDS011;39717;47.324;8.788;2022-10-19T09:27:34;21.37;;;15.40;;
50815;SDS011;39717;47.324;8.788;2022-10-19T09:30:04;22.30;;;15.53;;
50815;SDS011;39717;47.324;8.788;2022-10-19T09:32:40;24.63;;;15.60;;
50815;SDS011;39717;47.324;8.788;2022-10-19T09:37:52;16.00;;;13.53;;
50815;SDS011;39717;47.324;8.788;2022-10-19T09:40:21;22.10;;;14.20;;
50815;SDS011;39717;47.324;8.788;2022-10-19T09:42:52;15.63;;;11.93;;
50815;SDS011;39717;47.324;8.788;2022-10-19T09:48:01;20.43;;;13.83;;
50815;SDS011;39717;47.324;8.788;2022-10-19T09:50:30;15.20;;;12.27;;
50815;SDS011;39717;47.324;8.788;2022-10-19T09:52:57;17.80;;;11.30;;
50815;SDS011;39717;47.324;8.788;2022-10-19T09:55:38;14.47;;;11.23;;
50815;SDS011;39717;47.324;8.788;2022-10-19T09:58:09;13.97;;;10.20;;
50815;SDS011;39717;47.324;8.788;2022-10-19T10:03:37;13.73;;;10.53;;
50815;SDS011;39717;47.324;8.788;2022-10-19T10:08:36;13.47;;;11.03;;
50815;SDS011;39717;47.324;8.788;2022-10-19T10:11:04;12.50;;;10.20;;
50815;SDS011;39717;47.324;8.788;2022-10-19T10:13:33;15.33;;;10.23;;
50815;SDS011;39717;47.324;8.788;2022-10-19T10:16:02;11.47;;;9.60;;
50815;SDS011;39717;47.324;8.788;2022-10-19T10:18:28;11.20;;;9.63;;
50815;SDS011;39717;47.324;8.788;2022-10-19T10:24:02;15.00;;;9.53;;
50815;SDS011;39717;47.324;8.788;2022-10-19T10:26:30;11.00;;;9.47;;
50815;SDS011;39717;47.324;8.788;2022-10-19T10:28:58;14.17;;;10.80;;
50815;SDS011;39717;47.324;8.788;2022-10-19T10:31:25;12.80;;;9.30;;
50815;SDS011;39717;47.324;8.788;2022-10-19T10:33:54;12.80;;;10.03;;
50815;SDS011;39717;47.324;8.788;2022-10-19T10:36:22;13.17;;;10.67;;
50815;SDS011;39717;47.324;8.788;2022-10-19T10:38:50;15.20;;;10.53;;
50815;SDS011;39717;47.324;8.788;2022-10-19T10:41:18;12.10;;;9.83;;
50815;SDS011;39717;47.324;8.788;2022-10-19T10:43:55;12.23;;;10.37;;
50815;SDS011;39717;47.324;8.788;2022-10-19T10:46:25;12.23;;;10.63;;
50815;SDS011;39717;47.324;8.788;2022-10-19T10:48:56;16.93;;;11.43;;
50815;SDS011;39717;47.324;8.788;2022-10-19T10:51:34;14.97;;;11.40;;
50815;SDS011;39717;47.324;8.788;2022-10-19T10:54:07;11.53;;;10.10;;
50815;SDS011;39717;47.324;8.788;2022-10-19T10:56:34;13.93;;;10.07;;
50815;SDS011;39717;47.324;8.788;2022-10-19T10:59:09;13.00;;;10.87;;
50815;SDS011;39717;47.324;8.788;2022-10-19T11:01:41;15.60;;;11.03;;
50815;SDS011;39717;47.324;8.788;2022-10-19T11:04:14;13.23;;;10.47;;
50815;SDS011;39717;47.324;8.788;2022-10-19T11:06:44;16.03;;;10.57;;
50815;SDS011;39717;47.324;8.788;2022-10-19T11:09:17;13.60;;;11.00;;
50815;SDS011;39717;47.324;8.788;2022-10-19T11:11:47;18.17;;;10.73;;
50815;SDS011;39717;47.324;8.788;2022-10-19T11:16:56;15.67;;;11.93;;
50815;SDS011;39717;47.324;8.788;2022-10-19T11:19:25;13.60;;;11.13;;
50815;SDS011;39717;47.324;8.788;2022-10-19T11:21:56;19.50;;;11.97;;
50815;SDS011;39717;47.324;8.788;2022-10-19T11:30:03;15.30;;;10.20;;
50815;SDS011;39717;47.324;8.788;2022-10-19T11:41:44;15.47;;;9.80;;
50815;SDS011;39717;47.324;8.788;2022-10-19T11:46:59;13.80;;;10.40;;
50815;SDS011;39717;47.324;8.788;2022-10-19T11:52:47;14.23;;;11.00;;
50815;SDS011;39717;47.324;8.788;2022-10-19T12:00:23;12.63;;;10.40;;
50815;SDS011;39717;47.324;8.788;2022-10-19T12:11:29;15.70;;;11.23;;
50815;SDS011;39717;47.324;8.788;2022-10-19T12:13:59;13.90;;;9.60;;
50815;SDS011;39717;47.324;8.788;2022-10-19T12:16:37;13.53;;;9.90;;
50815;SDS011;39717;47.324;8.788;2022-10-19T12:19:05;12.07;;;10.23;;
50815;SDS011;39717;47.324;8.788;2022-10-19T12:21:38;13.23;;;10.40;;
50815;SDS011;39717;47.324;8.788;2022-10-19T12:26:57;12.60;;;9.73;;
50815;SDS011;39717;47.324;8.788;2022-10-19T12:29:24;13.00;;;9.90;;
50815;SDS011;39717;47.324;8.788;2022-10-19T12:31:58;11.60;;;9.27;;
50815;SDS011;39717;47.324;8.788;2022-10-19T12:37:21;11.90;;;9.10;;
50815;SDS011;39717;47.324;8.788;2022-10-19T12:42:47;12.47;;;9.03;;
50815;SDS011;39717;47.324;8.788;2022-10-19T12:53:23;15.03;;;9.83;;
50815;SDS011;39717;47.324;8.788;2022-10-19T12:58:24;14.27;;;9.67;;
50815;SDS011;39717;47.324;8.788;2022-10-19T13:00:57;14.97;;;9.60;;
50815;SDS011;39717;47.324;8.788;2022-10-19T13:03:25;13.63;;;10.07;;
50815;SDS011;39717;47.324;8.788;2022-10-19T13:05:55;12.13;;;9.60;;
50815;SDS011;39717;47.324;8.788;2022-10-19T13:08:24;12.70;;;9.37;;
50815;SDS011;39717;47.324;8.788;2022-10-19T13:11:07;13.10;;;9.23;;
50815;SDS011;39717;47.324;8.788;2022-10-19T13:22:01;10.97;;;8.57;;
50815;SDS011;39717;47.324;8.788;2022-10-19T13:24:32;11.57;;;9.30;;
50815;SDS011;39717;47.324;8.788;2022-10-19T13:37:44;15.53;;;8.17;;
50815;SDS011;39717;47.324;8.788;2022-10-19T13:40:16;10.83;;;8.33;;
50815;SDS011;39717;47.324;8.788;2022-10-19T13:42:44;11.60;;;8.70;;
50815;SDS011;39717;47.324;8.788;2022-10-19T13:45:22;11.73;;;8.77;;
50815;SDS011;39717;47.324;8.788;2022-10-19T13:47:50;11.73;;;9.20;;
50815;SDS011;39717;47.324;8.788;2022-10-19T13:50:25;11.37;;;9.13;;
50815;SDS011;39717;47.324;8.788;2022-10-19T13:52:59;14.17;;;9.73;;
50815;SDS011;39717;47.324;8.788;2022-10-19T13:58:00;11.00;;;8.03;;
50815;SDS011;39717;47.324;8.788;2022-10-19T14:00:49;11.03;;;7.93;;
50815;SDS011;39717;47.324;8.788;2022-10-19T14:11:36;13.20;;;8.50;;
50815;SDS011;39717;47.324;8.788;2022-10-19T14:17:20;11.77;;;8.80;;
50815;SDS011;39717;47.324;8.788;2022-10-19T14:19:55;12.20;;;8.57;;
50815;SDS011;39717;47.324;8.788;2022-10-19T14:22:26;12.47;;;9.27;;
50815;SDS011;39717;47.324;8.788;2022-10-19T14:28:00;12.60;;;8.40;;
50815;SDS011;39717;47.324;8.788;2022-10-19T14:30:27;10.73;;;8.70;;
50815;SDS011;39717;47.324;8.788;2022-10-19T14:32:55;8.70;;;7.80;;
50815;SDS011;39717;47.324;8.788;2022-10-19T14:35:47;11.00;;;8.87;;
50815;SDS011;39717;47.324;8.788;2022-10-19T14:38:15;11.90;;;8.90;;
50815;SDS011;39717;47.324;8.788;2022-10-19T14:40:43;13.40;;;8.10;;
50815;SDS011;39717;47.324;8.788;2022-10-19T14:43:28;11.63;;;8.33;;
50815;SDS011;39717;47.324;8.788;2022-10-19T14:48:33;11.07;;;8.87;;
50815;SDS011;39717;47.324;8.788;2022-10-19T14:51:00;14.33;;;8.20;;
50815;SDS011;39717;47.324;8.788;2022-10-19T14:55:57;13.73;;;8.67;;
50815;SDS011;39717;47.324;8.788;2022-10-19T14:58:27;11.87;;;9.30;;
50815;SDS011;39717;47.324;8.788;2022-10-19T15:00:58;12.73;;;9.40;;
50815;SDS011;39717;47.324;8.788;2022-10-19T15:03:27;12.97;;;9.67;;
50815;SDS011;39717;47.324;8.788;2022-10-19T15:06:02;13.07;;;8.53;;
50815;SDS011;39717;47.324;8.788;2022-10-19T15:08:36;13.17;;;8.50;;
50815;SDS011;39717;47.324;8.788;2022-10-19T15:11:07;11.13;;;8.60;;
50815;SDS011;39717;47.324;8.788;2022-10-19T15:13:39;13.93;;;9.30;;
50815;SDS011;39717;47.324;8.788;2022-10-19T15:16:25;11.83;;;9.27;;
50815;SDS011;39717;47.324;8.788;2022-10-19T15:18:53;11.17;;;8.87;;
50815;SDS011;39717;47.324;8.788;2022-10-19T15:21:19;12.23;;;9.90;;
50815;SDS011;39717;47.324;8.788;2022-10-19T15:23:47;20.97;;;12.43;;
50815;SDS011;39717;47.324;8.788;2022-10-19T15:28:40;16.83;;;11.93;;
50815;SDS011;39717;47.324;8.788;2022-10-19T15:31:14;14.40;;;10.17;;
50815;SDS011;39717;47.324;8.788;2022-10-19T15:33:42;15.60;;;10.30;;
50815;SDS011;39717;47.324;8.788;2022-10-19T15:36:10;11.90;;;9.03;;
50815;SDS011;39717;47.324;8.788;2022-10-19T15:38:47;12.23;;;9.07;;
50815;SDS011;39717;47.324;8.788;2022-10-19T15:41:24;14.93;;;10.47;;
50815;SDS011;39717;47.324;8.788;2022-10-19T15:43:52;19.50;;;10.20;;
50815;SDS011;39717;47.324;8.788;2022-10-19T15:46:30;14.37;;;10.57;;
50815;SDS011;39717;47.324;8.788;2022-10-19T15:51:49;13.53;;;9.80;;
50815;SDS011;39717;47.324;8.788;2022-10-19T15:54:16;11.73;;;8.67;;
50815;SDS011;39717;47.324;8.788;2022-10-19T15:56:44;11.87;;;8.90;;
50815;SDS011;39717;47.324;8.788;2022-10-19T16:01:45;14.37;;;10.27;;
50815;SDS011;39717;47.324;8.788;2022-10-19T16:04:15;13.47;;;9.53;;
50815;SDS011;39717;47.324;8.788;2022-10-19T16:06:43;11.20;;;8.60;;
50815;SDS011;39717;47.324;8.788;2022-10-19T16:09:17;11.93;;;10.00;;
50815;SDS011;39717;47.324;8.788;2022-10-19T16:11:46;14.73;;;9.87;;
50815;SDS011;39717;47.324;8.788;2022-10-19T16:14:12;14.70;;;9.73;;
50815;SDS011;39717;47.324;8.788;2022-10-19T16:16:40;14.87;;;9.80;;
50815;SDS011;39717;47.324;8.788;2022-10-19T16:19:08;13.20;;;10.10;;
50815;SDS011;39717;47.324;8.788;2022-10-19T16:21:36;15.30;;;10.57;;
50815;SDS011;39717;47.324;8.788;2022-10-19T16:24:04;16.27;;;10.27;;
50815;SDS011;39717;47.324;8.788;2022-10-19T16:26:31;16.63;;;10.80;;
50815;SDS011;39717;47.324;8.788;2022-10-19T16:28:59;14.93;;;10.43;;
50815;SDS011;39717;47.324;8.788;2022-10-19T16:31:33;17.00;;;11.77;;
50815;SDS011;39717;47.324;8.788;2022-10-19T16:33:59;29.23;;;19.53;;
50815;SDS011;39717;47.324;8.788;2022-10-19T16:36:26;48.57;;;32.37;;
50815;SDS011;39717;47.324;8.788;2022-10-19T16:38:54;34.77;;;23.83;;
50815;SDS011;39717;47.324;8.788;2022-10-19T16:41:21;18.50;;;14.13;;
50815;SDS011;39717;47.324;8.788;2022-10-19T16:43:52;21.00;;;13.30;;
50815;SDS011;39717;47.324;8.788;2022-10-19T16:46:20;16.40;;;12.47;;
50815;SDS011;39717;47.324;8.788;2022-10-19T16:48:47;19.83;;;13.63;;
50815;SDS011;39717;47.324;8.788;2022-10-19T16:51:18;17.40;;;13.87;;
50815;SDS011;39717;47.324;8.788;2022-10-19T16:53:48;19.20;;;12.67;;
50815;SDS011;39717;47.324;8.788;2022-10-19T16:56:16;14.70;;;12.60;;
50815;SDS011;39717;47.324;8.788;2022-10-19T16:58:42;17.77;;;12.63;;
50815;SDS011;39717;47.324;8.788;2022-10-19T17:01:11;20.13;;;13.40;;
50815;SDS011;39717;47.324;8.788;2022-10-19T17:03:37;23.83;;;15.80;;
50815;SDS011;39717;47.324;8.788;2022-10-19T17:06:04;22.23;;;16.13;;
50815;SDS011;39717;47.324;8.788;2022-10-19T17:08:33;29.23;;;19.00;;
50815;SDS011;39717;47.324;8.788;2022-10-19T17:11:16;25.47;;;17.20;;
50815;SDS011;39717;47.324;8.788;2022-10-19T17:13:43;30.77;;;16.87;;
50815;SDS011;39717;47.324;8.788;2022-10-19T17:16:10;20.17;;;15.20;;
50815;SDS011;39717;47.324;8.788;2022-10-19T17:18:36;25.33;;;17.40;;
50815;SDS011;39717;47.324;8.788;2022-10-19T17:21:07;22.20;;;15.40;;
50815;SDS011;39717;47.324;8.788;2022-10-19T17:23:33;24.73;;;16.73;;
50815;SDS011;39717;47.324;8.788;2022-10-19T17:26:00;26.63;;;17.17;;
50815;SDS011;39717;47.324;8.788;2022-10-19T17:31:18;21.67;;;16.13;;
50815;SDS011;39717;47.324;8.788;2022-10-19T17:33:45;22.80;;;15.83;;
50815;SDS011;39717;47.324;8.788;2022-10-19T17:36:22;27.23;;;16.77;;
50815;SDS011;39717;47.324;8.788;2022-10-19T17:38:51;21.80;;;15.60;;
50815;SDS011;39717;47.324;8.788;2022-10-19T17:41:18;28.67;;;15.43;;
50815;SDS011;39717;47.324;8.788;2022-10-19T17:43:45;24.57;;;17.07;;
50815;SDS011;39717;47.324;8.788;2022-10-19T17:46:20;23.77;;;15.40;;
50815;SDS011;39717;47.324;8.788;2022-10-19T17:48:49;24.07;;;15.43;;
50815;SDS011;39717;47.324;8.788;2022-10-19T17:51:16;23.30;;;15.70;;